Terminal Aerodrome Forecast
Issued by NWS Sterling, VA

Current Version | Previous Version | Graphics & Text | Print | Product List | Glossary On
Versions: 1 2 3 4 5 6 7 8 9 10 11 12 13 14 15 16 17 18 19 20 21 22 23 24 25 26 27
916
FTUS41 KLWX 230534
TAFIAD
TAF
KIAD 230534Z 2306/2412 34005KT P6SM BKN150
     FM231400 04006KT P6SM OVC100
     FM231600 05006KT P6SM OVC020
     FM232100 03006KT 6SM -RA OVC015
     FM240000 04005KT P6SM OVC008
     FM240500 VRB03KT P6SM OVC008=

USA.gov is the U.S. government's official web portal to all federal, state and local government web resources and services.